WetterOnline ( https://www.wetteronline.de )

Wetter aktuell Schkopau

Aktuelles Wetter: Osterfeld (246m)

6-stündlich | Neueste Meldungen
Ortszeit Temperatur Wetter
Mo, 06.12. 7:00 -0.1° C leichter Schneefall
Mo, 06.12. 1:00 1.0° C bedeckt
So, 05.12. 19:00 2.7° C bedeckt
So, 05.12. 13:00 5.5° C leicht bewölkt
So, 05.12. 7:00 2.2° C bewölkt
So, 05.12. 1:00 3.6° C Sprühregen
Sa, 04.12. 19:00 1.9° C bedeckt
Sa, 04.12. 13:00 2.3° C bedeckt
Ortszeit Temperatur Wetter
Mo, 06.12. 8:30 -0.5° C leichter Schneefall
Mo, 06.12. 8:20 -0.5° C leichter Schneefall
Mo, 06.12. 8:10 -0.5° C leichter Schneefall
Mo, 06.12. 8:00 -0.3° C leichter Schneefall
Mo, 06.12. 7:50 -0.3° C leichter Schneefall
Mo, 06.12. 7:40 -0.3° C leichter Schneefall
Mo, 06.12. 7:30 -0.2° C leichter Schneefall
Mo, 06.12. 7:00 -0.1° C leichter Schneefall
Mo, 06.12. 6:30 0.0° C leichter Schneefall
Mo, 06.12. 6:00 0.2° C bedeckt
Mo, 06.12. 5:30 0.4° C bedeckt
Ortszeit Relative Feuchte Sichtweite
Mo, 06.12. 7:00 100% 0.8 km
Mo, 06.12. 1:00 97% 11 km
So, 05.12. 19:00 83% 11 km
So, 05.12. 13:00 72% 11 km
So, 05.12. 7:00 84% 11 km
So, 05.12. 1:00 90% 11 km
Sa, 04.12. 19:00 90% 11 km
Sa, 04.12. 13:00 87% 11 km
Ortszeit Relative Feuchte Sichtweite
Mo, 06.12. 8:30 99% 2.6 km
Mo, 06.12. 8:20 99% -
Mo, 06.12. 8:10 99% -
Mo, 06.12. 8:00 100% 1.9 km
Mo, 06.12. 7:50 100% -
Mo, 06.12. 7:40 100% -
Mo, 06.12. 7:30 99% 0.9 km
Mo, 06.12. 7:00 100% 0.8 km
Mo, 06.12. 6:30 99% 1.6 km
Mo, 06.12. 6:00 98% 11 km
Mo, 06.12. 5:30 100% 11 km
Ortszeit Niederschlagsmenge Niederschlagsart
Mo, 06.12. 7:00 0.2 l/m2 in 12 Std. Schnee, Regen
Mo, 06.12. 1:00 0.0 l/m2 in 6 Std. -
So, 05.12. 19:00 0.0 l/m2 in 12 Std. -
So, 05.12. 13:00 0.0 l/m2 in 6 Std. -
So, 05.12. 7:00 2 l/m2 in 12 Std. Regen
So, 05.12. 1:00 2 l/m2 in 6 Std. Regen
Sa, 04.12. 19:00 0.1 l/m2 in 12 Std. Regen
Sa, 04.12. 13:00 0.1 l/m2 in 6 Std. Schnee
Ortszeit Niederschlagsmenge Niederschlagsart
Mo, 06.12. 8:30 0.1 l/m2 in 1 Std. -
Mo, 06.12. 8:20 keine Meldung -
Mo, 06.12. 8:10 keine Meldung -
Mo, 06.12. 8:00 0.5 l/m2 in 1 Std. Schnee
Mo, 06.12. 7:50 keine Meldung -
Mo, 06.12. 7:40 keine Meldung -
Mo, 06.12. 7:30 0.4 l/m2 in 1 Std. -
Mo, 06.12. 7:00 0.2 l/m2 in 1 Std. Schnee, Regen
Mo, 06.12. 6:30 0.1 l/m2 in 1 Std. -
Mo, 06.12. 6:00 0.0 l/m2 in 1 Std. -
Mo, 06.12. 5:30 0.0 l/m2 in 1 Std. -
Ortszeit Stärke Spitze Richtung
km/h Bft. km/h Grad Sektor
Mo, 06.12. 7:00 11 2 25 350° N
Mo, 06.12. 1:00 9 2 15 350° N
So, 05.12. 19:00 4 1 18 190° S
So, 05.12. 13:00 7 2 22 230° SW
So, 05.12. 7:00 7 2 32 230° SW
So, 05.12. 1:00 15 3 33 260° W
Sa, 04.12. 19:00 13 3 28 160° S
Sa, 04.12. 13:00 11 2 29 180° S
Ortszeit Stärke Spitze Richtung
km/h Bft. km/h Grad Sektor
Mo, 06.12. 8:30 9 2 15 20° N
Mo, 06.12. 8:20 9 2 - 20° N
Mo, 06.12. 8:10 11 2 - 30° NO
Mo, 06.12. 8:00 9 2 19 10° N
Mo, 06.12. 7:50 9 2 - 10° N
Mo, 06.12. 7:40 13 3 - 360° N
Mo, 06.12. 7:30 13 3 19 350° N
Mo, 06.12. 7:00 11 2 25 350° N
Mo, 06.12. 6:30 18 3 25 340° N
Mo, 06.12. 6:00 19 3 24 340° N
Mo, 06.12. 5:30 14 3 22 340° N
Ortszeit Untergrenze Bedeckung Gattung
total tief tief mittel hoch
Mo, 06.12. 7:00 60 m 7/8 7/8 - - -
Mo, 06.12. 1:00 90 m 8/8 8/8 - - -
So, 05.12. 19:00 1500 m 8/8 8/8 - - -
So, 05.12. 13:00 5700 m 3/8 3/8 - - -
So, 05.12. 7:00 5400 m 7/8 7/8 - - -
So, 05.12. 1:00 450 m 8/8 8/8 - - -
Sa, 04.12. 19:00 570 m 8/8 8/8 - - -
Sa, 04.12. 13:00 1800 m 8/8 8/8 - - -
Ortszeit Bedeckungsgrad in Achtel und Wolkenuntergrenze
Mo, 06.12. 8:30 2(60m) 5(180m) 8(360m)
Mo, 06.12. 8:20 2(60m) 5(180m) 8(360m)
Mo, 06.12. 8:10 4(60m) 5(150m) 8(330m)
Mo, 06.12. 8:00 8(60m) 8(240m)
Mo, 06.12. 7:50 8(60m)
Mo, 06.12. 7:40 7(60m)
Mo, 06.12. 7:30 -
Mo, 06.12. 7:00 7(60m)
Mo, 06.12. 6:30 8(90m)
Mo, 06.12. 6:00 8(120m)
Mo, 06.12. 5:30 8(90m) 8(210m)
Ortszeit Luftdruck NN (hPa) Tendenz (hPa in 3 Std.)
Mo, 06.12. 7:00 1014 + 1,7
Mo, 06.12. 1:00 1011 + 1,0
So, 05.12. 19:00 1008 + 1,6
So, 05.12. 13:00 1005 + 0,8
So, 05.12. 7:00 1002 + 1,1
So, 05.12. 1:00 999 + 2,5
Sa, 04.12. 19:00 997 - 0,7
Sa, 04.12. 13:00 999 - 1,6
Ortszeit Luftdruck NN (hPa) Tendenz (hPa in 3 Std.)
Mo, 06.12. 8:30 1015 + 1,9
Mo, 06.12. 8:20 1015 keine Meldung
Mo, 06.12. 8:10 1015 keine Meldung
Mo, 06.12. 8:00 1015 + 1,9
Mo, 06.12. 7:50 1015 keine Meldung
Mo, 06.12. 7:40 1015 keine Meldung
Mo, 06.12. 7:30 1015 + 1,5
Mo, 06.12. 7:00 1014 + 1,7
Mo, 06.12. 6:30 1014 + 1,4
Mo, 06.12. 6:00 1014 + 1,2
Mo, 06.12. 5:30 1013 + 1,2
Ortszeit Schneehöhe (cm)
Mo, 06.12. 7:00 0
Mo, 06.12. 1:00 0
So, 05.12. 19:00 0
So, 05.12. 13:00 0
So, 05.12. 7:00 0
So, 05.12. 1:00 0
Sa, 04.12. 19:00 0
Sa, 04.12. 13:00 -
Ortszeit Schneehöhe (cm)
Mo, 06.12. 8:30 0
Mo, 06.12. 8:20 0
Mo, 06.12. 8:10 0
Mo, 06.12. 8:00 0
Mo, 06.12. 7:50 0
Mo, 06.12. 7:40 0
Mo, 06.12. 7:30 0
Mo, 06.12. 7:00 0
Mo, 06.12. 6:30 0
Mo, 06.12. 6:00 0
Mo, 06.12. 5:30 0
Link zu dieser Seite / Seite empfehlen

Das Wetter in ...